Time;durP1;ratioP1;P1;durP2;ratioP2;P2;SDS_P1;SDS_P2;PMS_P1;PMS_P2;Temp;Humidity;BMP_temperature;BMP_pressure;BME280_temperature;BME280_humidity;BME280_pressure;Samples;Min_cycle;Max_cycle;Signal;HPM_P1;HPM_P2
2021/10/02 00:35:37;;;;;;;12.88;7.55;;;27.20;99.90;;;;;;1888129;75;21193;-76
2021/10/02 00:38:14;;;;;;;11.95;7.20;;;27.20;99.90;;;;;;1868593;76;21514;-77
2021/10/02 00:45:42;;;;;;;9.68;6.87;;;27.30;99.90;;;;;;1895600;74;21115;-77
2021/10/02 00:48:14;;;;;;;9.18;6.83;;;27.30;99.90;;;;;;1904548;73;21623;-76
2021/10/02 00:50:47;;;;;;;10.38;7.10;;;27.30;99.90;;;;;;1890641;74;21532;-77
2021/10/02 00:53:18;;;;;;;7.95;6.12;;;27.30;99.90;;;;;;1902247;75;21156;-76
2021/10/02 00:55:50;;;;;;;9.40;6.47;;;27.30;99.90;;;;;;1911911;74;21579;-77
2021/10/02 00:58:21;;;;;;;11.57;6.00;;;27.40;99.90;;;;;;1900604;75;21194;-76
2021/10/02 01:00:54;;;;;;;10.28;6.53;;;27.40;99.90;;;;;;1903713;74;21124;-75
2021/10/02 01:03:28;;;;;;;10.32;6.80;;;27.40;99.90;;;;;;1904991;74;21076;-84
2021/10/02 01:06:01;;;;;;;9.95;6.08;;;27.40;99.90;;;;;;1914632;74;21116;-79
2021/10/02 01:08:34;;;;;;;8.30;5.97;;;27.50;99.90;;;;;;1902707;74;22305;-79
2021/10/02 01:11:08;;;;;;;8.75;5.20;;;27.50;99.90;;;;;;1881582;74;21130;-81
2021/10/02 01:13:41;;;;;;;6.37;5.12;;;27.50;99.90;;;;;;1899042;75;21150;-79
2021/10/02 01:16:14;;;;;;;7.55;5.12;;;27.60;99.90;;;;;;1895354;75;21084;-79
2021/10/02 01:18:48;;;;;;;6.17;4.75;;;27.60;99.90;;;;;;1900059;75;21567;-79
2021/10/02 01:21:22;;;;;;;6.33;4.78;;;27.70;99.90;;;;;;1873938;75;21711;-78
2021/10/02 01:23:56;;;;;;;11.53;6.08;;;27.70;99.90;;;;;;1892869;75;21595;-78
2021/10/02 01:26:29;;;;;;;6.78;4.20;;;27.80;99.90;;;;;;1886351;75;21148;-79
2021/10/02 01:29:16;;;;;;;26.37;17.92;;;27.80;99.90;;;;;;1888652;75;21177;-80
2021/10/02 01:31:52;;;;;;;19.85;10.82;;;27.90;99.90;;;;;;1842146;76;21139;-78
2021/10/02 01:34:24;;;;;;;7.97;5.58;;;28.00;99.90;;;;;;1812391;78;21678;-78
2021/10/02 01:37:01;;;;;;;7.55;5.20;;;28.00;99.90;;;;;;1801710;78;21682;-78
2021/10/02 01:47:13;;;;;;;6.05;4.12;;;28.20;99.90;;;;;;1824662;78;21178;-79
2021/10/02 01:49:44;;;;;;;6.78;4.67;;;28.30;99.90;;;;;;1836824;77;21091;-79
2021/10/02 01:52:18;;;;;;;8.30;5.10;;;28.30;99.90;;;;;;1835086;78;21662;-78
2021/10/02 01:54:51;;;;;;;7.45;5.03;;;28.30;99.90;;;;;;1839224;76;21847;-80
2021/10/02 01:57:27;;;;;;;8.18;5.20;;;28.40;99.90;;;;;;1818025;77;21237;-78
2021/10/02 01:59:59;;;;;;;7.75;5.03;;;28.40;99.90;;;;;;1811911;78;21302;-77
2021/10/02 02:02:32;;;;;;;6.97;4.62;;;28.50;99.90;;;;;;1851122;77;21613;-79
2021/10/02 02:05:05;;;;;;;8.60;4.90;;;28.60;99.90;;;;;;1822733;77;21228;-80
2021/10/02 02:07:38;;;;;;;6.85;4.70;;;28.70;99.90;;;;;;1859276;76;21631;-79
2021/10/02 02:10:12;;;;;;;10.23;5.17;;;28.80;99.90;;;;;;1796815;79;21227;-79
2021/10/02 02:12:44;;;;;;;6.25;4.85;;;28.90;99.90;;;;;;1855839;76;21620;-76
2021/10/02 02:15:16;;;;;;;9.13;5.03;;;29.00;99.90;;;;;;1822522;77;21646;-78
2021/10/02 02:17:49;;;;;;;8.73;6.35;;;29.00;99.90;;;;;;1845161;77;21240;-78
2021/10/02 02:20:23;;;;;;;9.78;5.10;;;29.00;99.90;;;;;;1820878;77;21257;-78
2021/10/02 02:22:54;;;;;;;8.30;5.80;;;29.10;99.90;;;;;;1828325;78;21175;-78
2021/10/02 02:25:25;;;;;;;11.00;5.90;;;29.10;99.90;;;;;;1858767;77;21099;-77
2021/10/02 02:27:57;;;;;;;7.33;5.33;;;29.10;99.90;;;;;;1831324;78;21644;-77
2021/10/02 02:30:28;;;;;;;13.32;6.95;;;29.20;99.90;;;;;;1935612;73;21116;-78
2021/10/02 02:33:00;;;;;;;10.20;6.25;;;29.20;99.90;;;;;;1900635;74;21128;-77
2021/10/02 02:36:15;;;;;;;10.25;5.95;;;29.40;99.80;;;;;;1902274;75;21572;-77
2021/10/02 02:38:49;;;;;;;10.45;5.53;;;29.50;99.80;;;;;;1886901;75;21636;-77
2021/10/02 02:41:20;;;;;;;7.55;5.65;;;29.60;99.60;;;;;;1900076;75;21065;-79
2021/10/02 02:43:50;;;;;;;6.35;5.33;;;29.70;99.50;;;;;;1894769;74;21681;-79
2021/10/02 02:46:24;;;;;;;7.40;4.92;;;29.90;99.30;;;;;;1903651;74;21142;-78
2021/10/02 02:48:57;;;;;;;11.35;5.60;;;30.00;99.20;;;;;;1900350;74;21152;-78
2021/10/02 02:51:31;;;;;;;9.58;6.15;;;30.20;97.90;;;;;;1901131;75;21567;-78
2021/10/02 02:54:08;;;;;;;6.25;5.28;;;30.40;98.20;;;;;;1894552;75;21210;-79
2021/10/02 02:56:39;;;;;;;7.75;5.00;;;30.50;97.20;;;;;;1915946;74;21677;-79
2021/10/02 02:59:13;;;;;;;8.63;5.00;;;30.60;97.20;;;;;;1929348;72;21433;-78
2021/10/02 03:01:44;;;;;;;7.67;5.55;;;30.60;97.10;;;;;;1920578;74;21556;-79
2021/10/02 03:04:18;;;;;;;6.50;5.35;;;30.80;97.30;;;;;;1916639;74;21740;-79
2021/10/02 03:06:51;;;;;;;9.55;5.80;;;30.80;97.00;;;;;;1917667;74;21191;-79
2021/10/02 03:09:23;;;;;;;6.60;5.60;;;30.90;96.80;;;;;;1922339;74;21182;-78
2021/10/02 03:15:06;;;;;;;7.25;5.97;;;31.10;95.50;;;;;;1875634;75;21591;-79
2021/10/02 03:17:38;;;;;;;10.08;6.67;;;31.20;95.40;;;;;;1882263;74;21170;-79
2021/10/02 03:20:10;;;;;;;6.50;5.47;;;31.20;95.40;;;;;;1881347;75;21356;-79
2021/10/02 03:22:44;;;;;;;9.23;6.22;;;31.30;95.60;;;;;;1881771;74;21841;-79
2021/10/02 03:25:15;;;;;;;10.85;6.78;;;31.50;95.60;;;;;;1889062;74;21553;-80
2021/10/02 03:27:48;;;;;;;8.75;5.95;;;31.60;95.90;;;;;;1879850;75;21231;-79
2021/10/02 03:30:19;;;;;;;9.03;5.67;;;31.70;94.50;;;;;;1882336;74;21304;-80
2021/10/02 03:32:52;;;;;;;8.38;6.17;;;31.90;94.30;;;;;;1876747;74;21563;-80
2021/10/02 03:35:23;;;;;;;9.65;5.95;;;31.90;93.80;;;;;;1872969;75;21182;-80
2021/10/02 03:37:54;;;;;;;8.65;6.17;;;31.90;94.30;;;;;;1883561;75;21779;-80
2021/10/02 03:40:25;;;;;;;7.85;6.75;;;31.90;94.40;;;;;;1867592;75;21203;-79
2021/10/02 03:42:57;;;;;;;7.25;6.47;;;32.00;93.70;;;;;;1868011;75;21076;-80
2021/10/02 03:45:36;;;;;;;9.18;6.92;;;31.90;93.20;;;;;;1885301;75;21131;-79
2021/10/02 03:48:05;;;;;;;6.62;6.03;;;31.90;94.00;;;;;;1882048;75;21247;-78
2021/10/02 03:50:37;;;;;;;8.35;5.85;;;31.70;93.90;;;;;;1873659;75;21072;-78
2021/10/02 03:53:12;;;;;;;8.00;7.03;;;31.60;94.50;;;;;;1879335;75;21128;-79
2021/10/02 03:55:43;;;;;;;8.40;6.55;;;31.50;94.50;;;;;;1919648;73;21053;-77
2021/10/02 03:58:15;;;;;;;8.30;6.83;;;31.40;94.50;;;;;;1913329;74;21529;-78
2021/10/02 04:00:51;;;;;;;8.33;7.30;;;31.40;94.30;;;;;;1917040;74;21250;-79
2021/10/02 04:03:19;;;;;;;9.08;7.28;;;31.40;94.40;;;;;;1876122;75;21649;-78
2021/10/02 04:05:49;;;;;;;9.50;8.10;;;31.30;94.60;;;;;;1881093;75;21848;-80
2021/10/02 04:08:20;;;;;;;9.45;8.53;;;31.30;94.60;;;;;;1927424;73;21060;-81
2021/10/02 04:10:51;;;;;;;10.45;6.85;;;31.40;95.20;;;;;;1930002;73;21160;-78
2021/10/02 04:13:25;;;;;;;11.25;7.37;;;31.50;94.70;;;;;;1919257;74;21077;-78
2021/10/02 04:15:57;;;;;;;10.63;7.33;;;31.60;94.90;;;;;;1867385;75;21525;-79
2021/10/02 04:18:28;;;;;;;9.80;8.03;;;31.70;94.10;;;;;;1839401;76;21311;-79
2021/10/02 04:21:17;;;;;;;8.95;7.47;;;31.80;94.00;;;;;;1858266;76;21915;-79
2021/10/02 04:23:48;;;;;;;9.10;7.35;;;32.00;93.90;;;;;;1842265;76;21165;-78
2021/10/02 04:26:22;;;;;;;8.95;7.42;;;32.20;93.80;;;;;;1830306;77;21167;-79
2021/10/02 04:28:52;;;;;;;8.88;7.70;;;32.30;93.80;;;;;;1842795;76;21289;-80
2021/10/02 04:31:23;;;;;;;12.47;7.90;;;32.40;92.70;;;;;;1860203;76;21806;-80
2021/10/02 04:33:54;;;;;;;8.63;7.53;;;32.40;93.20;;;;;;1859386;76;21168;-78
2021/10/02 04:36:25;;;;;;;10.88;6.67;;;32.30;93.30;;;;;;1851489;76;22355;-78
2021/10/02 04:38:56;;;;;;;8.08;6.87;;;32.20;92.30;;;;;;1835276;76;21164;-79
2021/10/02 04:41:29;;;;;;;8.40;7.00;;;32.00;92.50;;;;;;1841748;76;21623;-78
2021/10/02 04:44:01;;;;;;;9.93;6.97;;;32.00;93.70;;;;;;1858719;76;21691;-78
2021/10/02 04:46:32;;;;;;;8.38;6.72;;;31.90;94.20;;;;;;1859207;76;21727;-78
2021/10/02 04:49:03;;;;;;;8.58;6.67;;;31.90;93.60;;;;;;1861248;76;21228;-80
2021/10/02 04:51:34;;;;;;;9.55;7.42;;;32.10;93.00;;;;;;1861471;76;21168;-82
2021/10/02 04:54:05;;;;;;;7.70;6.78;;;32.10;92.10;;;;;;1855045;76;21156;-77
2021/10/02 04:56:36;;;;;;;8.25;6.42;;;32.00;92.20;;;;;;1892110;73;21100;-83
2021/10/02 04:59:10;;;;;;;8.03;6.80;;;31.90;92.50;;;;;;1926163;73;21160;-79
2021/10/02 05:01:41;;;;;;;7.08;6.37;;;31.80;93.10;;;;;;1919707;74;21084;-79
2021/10/02 05:04:12;;;;;;;8.23;5.87;;;31.70;93.10;;;;;;1921633;74;21131;-80
2021/10/02 05:06:43;;;;;;;7.17;6.47;;;31.60;93.40;;;;;;1908143;74;21279;-79
2021/10/02 05:09:13;;;;;;;6.42;5.83;;;31.50;92.80;;;;;;1919123;74;21163;-79
2021/10/02 05:11:44;;;;;;;7.67;6.12;;;31.50;93.40;;;;;;1857714;75;21135;-79
2021/10/02 05:14:15;;;;;;;7.85;6.72;;;31.30;93.50;;;;;;1853892;76;21175;-81
2021/10/02 05:16:46;;;;;;;8.45;6.25;;;31.40;93.70;;;;;;1857938;76;21855;-80
2021/10/02 05:19:17;;;;;;;7.58;6.33;;;31.50;93.60;;;;;;1918797;74;21665;-79
2021/10/02 05:21:48;;;;;;;9.18;6.58;;;31.60;92.80;;;;;;1918245;74;21670;-80
2021/10/02 05:24:19;;;;;;;7.05;6.35;;;31.60;92.90;;;;;;1913119;74;21158;-80
2021/10/02 05:26:50;;;;;;;7.70;6.72;;;31.60;92.90;;;;;;1904932;74;21091;-80
2021/10/02 05:29:21;;;;;;;10.43;7.75;;;31.60;93.20;;;;;;1904565;74;21180;-80
2021/10/02 05:31:52;;;;;;;10.32;7.50;;;31.50;93.90;;;;;;1909370;74;21584;-80
2021/10/02 05:34:23;;;;;;;9.30;7.22;;;31.40;93.60;;;;;;1909293;74;21095;-79
2021/10/02 05:36:54;;;;;;;9.28;7.12;;;31.30;93.50;;;;;;1915732;74;21152;-79
2021/10/02 05:39:25;;;;;;;9.83;7.22;;;31.30;93.90;;;;;;1916030;74;21199;-79
2021/10/02 05:41:56;;;;;;;10.70;7.25;;;31.30;93.80;;;;;;1915839;74;21120;-78
2021/10/02 05:44:27;;;;;;;7.67;6.55;;;31.30;93.70;;;;;;1924006;74;21116;-79
2021/10/02 05:46:58;;;;;;;10.85;7.53;;;31.30;93.80;;;;;;1923835;74;21072;-80
2021/10/02 05:49:29;;;;;;;7.85;6.62;;;31.30;93.20;;;;;;1911430;74;21070;-78
2021/10/02 05:51:59;;;;;;;8.15;7.35;;;31.30;93.10;;;;;;1908215;74;21294;-78
2021/10/02 05:54:30;;;;;;;8.58;6.80;;;31.30;93.10;;;;;;1852617;76;21167;-80
2021/10/02 05:57:04;;;;;;;8.53;6.65;;;31.30;93.20;;;;;;1912753;74;21623;-79
2021/10/02 05:59:36;;;;;;;8.13;7.17;;;31.30;93.60;;;;;;1916645;74;21203;-79
2021/10/02 06:02:23;;;;;;;11.53;6.85;;;31.30;93.70;;;;;;1907691;74;21126;-80
2021/10/02 06:04:54;;;;;;;8.25;6.33;;;31.30;93.10;;;;;;1898104;74;21698;-79
2021/10/02 06:07:25;;;;;;;7.42;5.95;;;31.30;92.70;;;;;;1899446;74;21630;-78
2021/10/02 06:13:20;;;;;;;7.08;6.37;;;31.40;92.20;;;;;;1898154;75;21710;-79
2021/10/02 06:15:51;;;;;;;9.85;6.65;;;31.50;92.50;;;;;;1898261;74;21888;-77
2021/10/02 06:18:22;;;;;;;6.92;6.22;;;31.60;92.40;;;;;;1895731;75;21132;-78
2021/10/02 06:24:49;;;;;;;6.75;5.85;;;31.50;92.20;;;;;;1897500;74;21158;-80
2021/10/02 06:27:21;;;;;;;6.45;5.62;;;31.50;92.20;;;;;;1866025;75;21106;-79
2021/10/02 06:30:55;;;;;;;5.65;5.05;;;31.50;92.30;;;;;;1894347;75;21126;-78
2021/10/02 06:33:42;;;;;;;6.20;5.58;;;31.40;92.40;;;;;;1894349;75;21140;-79
2021/10/02 06:36:22;;;;;;;7.20;5.90;;;31.30;92.60;;;;;;1805517;77;21217;-80
2021/10/02 06:42:24;;;;;;;10.20;6.10;;;31.30;92.70;;;;;;1817821;77;21309;-79
2021/10/02 06:44:58;;;;;;;7.40;5.72;;;31.20;92.70;;;;;;1821330;77;21701;-79
2021/10/02 06:47:29;;;;;;;11.88;7.40;;;31.20;92.40;;;;;;1819647;77;21678;-79
2021/10/02 06:50:03;;;;;;;11.33;6.58;;;31.20;94.60;;;;;;1809540;77;21199;-80
2021/10/02 06:52:38;;;;;;;8.68;7.37;;;31.10;93.50;;;;;;1780608;79;21781;-78
2021/10/02 06:55:10;;;;;;;10.35;7.17;;;31.00;93.20;;;;;;1817943;77;21688;-78
2021/10/02 06:58:36;;;;;;;10.08;7.35;;;31.00;93.30;;;;;;1817424;77;21220;-79
2021/10/02 07:01:08;;;;;;;8.75;7.85;;;31.00;93.30;;;;;;1826043;77;21202;-79
2021/10/02 07:04:13;;;;;;;14.25;8.28;;;31.10;93.10;;;;;;1816528;77;21225;-79
2021/10/02 07:06:44;;;;;;;;;;;31.10;94.30;;;;;;1695105;83;21100;-78
2021/10/02 07:09:15;;;;;;;7.80;7.00;;;31.10;94.20;;;;;;1705274;83;20179;-77
2021/10/02 07:11:48;;;;;;;8.48;7.40;;;31.10;93.50;;;;;;1703615;83;21235;-77
2021/10/02 07:14:18;;;;;;;8.25;7.35;;;31.10;93.10;;;;;;1736414;81;21203;-80
2021/10/02 07:20:31;;;;;;;7.87;7.08;;;31.10;93.10;;;;;;1734960;80;21215;-79
2021/10/02 07:23:01;;;;;;;9.05;7.40;;;31.30;92.50;;;;;;1769131;79;21897;-79
2021/10/02 07:25:32;;;;;;;9.73;7.90;;;31.30;92.60;;;;;;1739634;80;21204;-78
2021/10/02 07:28:03;;;;;;;9.98;7.62;;;31.30;93.80;;;;;;1797501;78;21189;-78
2021/10/02 07:30:34;;;;;;;8.15;7.35;;;31.30;93.80;;;;;;1731465;81;21754;-78
2021/10/02 07:33:05;;;;;;;10.13;7.62;;;31.40;92.50;;;;;;1735575;82;21706;-79
2021/10/02 07:39:17;;;;;;;9.25;7.72;;;31.60;93.30;;;;;;1762082;80;22032;-79
2021/10/02 07:41:50;;;;;;;9.85;7.00;;;31.80;92.80;;;;;;1759125;80;21678;-79
2021/10/02 07:47:39;;;;;;;7.58;6.87;;;32.00;91.20;;;;;;1921585;73;21202;-78
2021/10/02 07:50:13;;;;;;;7.80;6.65;;;32.00;91.50;;;;;;1913898;74;21712;-78
2021/10/02 07:52:45;;;;;;;7.47;6.72;;;32.10;90.80;;;;;;1868460;75;21583;-78
2021/10/02 07:55:17;;;;;;;10.00;7.67;;;32.10;91.20;;;;;;1924598;74;21197;-79
2021/10/02 07:57:49;;;;;;;8.95;6.90;;;32.20;91.10;;;;;;1918234;73;21047;-78
2021/10/02 08:03:32;;;;;;;9.83;6.97;;;32.20;91.10;;;;;;1831574;78;21680;-77
2021/10/02 08:06:04;;;;;;;10.35;7.35;;;32.30;91.00;;;;;;1830328;78;21259;-77
2021/10/02 08:08:36;;;;;;;7.90;7.10;;;32.20;91.40;;;;;;1819518;77;21170;-77
2021/10/02 08:11:08;;;;;;;7.95;6.62;;;32.10;91.50;;;;;;1834352;78;21199;-78
2021/10/02 08:17:13;;;;;;;8.83;6.65;;;32.20;90.90;;;;;;1821123;78;21198;-78
2021/10/02 08:19:46;;;;;;;7.80;6.85;;;32.10;91.10;;;;;;1830943;78;21626;-79
2021/10/02 08:25:47;;;;;;;8.48;7.15;;;32.20;90.50;;;;;;1832938;78;21756;-79
2021/10/02 08:28:20;;;;;;;8.13;6.33;;;32.30;91.60;;;;;;1832479;78;21203;-79
2021/10/02 08:31:18;;;;;;;19.17;7.60;;;32.30;90.70;;;;;;1834868;76;21159;-78
2021/10/02 08:33:49;;;;;;;6.55;5.83;;;32.30;90.00;;;;;;1831600;78;21751;-79
2021/10/02 08:36:20;;;;;;;10.15;7.45;;;32.30;90.30;;;;;;1815895;76;22439;-79
2021/10/02 08:38:51;;;;;;;8.25;6.92;;;32.30;90.90;;;;;;1817312;78;21556;-78
2021/10/02 08:41:25;;;;;;;9.98;6.17;;;32.30;90.50;;;;;;1853335;77;21707;-78
2021/10/02 08:43:56;;;;;;;13.05;6.58;;;32.30;89.50;;;;;;1919793;74;21139;-79
2021/10/02 08:46:29;;;;;;;7.58;6.03;;;32.30;89.90;;;;;;1907525;73;21577;-80
2021/10/02 08:49:02;;;;;;;7.37;6.47;;;32.30;90.20;;;;;;1900119;74;21159;-78
2021/10/02 08:51:33;;;;;;;8.70;6.55;;;32.30;90.40;;;;;;1901989;74;21130;-77
2021/10/02 08:54:11;;;;;;;77.60;17.75;;;32.40;90.80;;;;;;1894110;75;21114;-80
2021/10/02 08:56:42;;;;;;;7.92;6.40;;;32.40;89.60;;;;;;1902296;74;21650;-78
2021/10/02 08:59:15;;;;;;;10.53;6.53;;;32.40;89.30;;;;;;1899825;74;21541;-79
2021/10/02 09:01:47;;;;;;;8.58;7.00;;;32.40;90.10;;;;;;1891461;75;21524;-79
2021/10/02 09:04:19;;;;;;;11.22;6.60;;;32.30;90.10;;;;;;1899308;74;21588;-80
2021/10/02 09:06:50;;;;;;;8.18;7.05;;;32.40;90.30;;;;;;1897104;74;21545;-78
2021/10/02 09:09:24;;;;;;;7.60;6.08;;;32.30;90.60;;;;;;1897133;75;21140;-79
2021/10/02 09:11:55;;;;;;;7.58;6.00;;;32.40;89.20;;;;;;1901742;74;21600;-78
2021/10/02 09:14:26;;;;;;;7.95;6.33;;;32.40;89.00;;;;;;1905988;74;21686;-78
2021/10/02 09:16:57;;;;;;;10.58;6.65;;;32.40;90.40;;;;;;1902323;74;21178;-79
2021/10/02 09:19:28;;;;;;;7.80;6.92;;;32.40;90.00;;;;;;1923895;74;21146;-79
2021/10/02 09:22:04;;;;;;;7.60;6.80;;;32.40;89.70;;;;;;1930570;74;21683;-77
2021/10/02 09:24:37;;;;;;;8.80;6.50;;;32.40;90.70;;;;;;1907928;74;21136;-77
2021/10/02 09:27:11;;;;;;;9.90;7.17;;;32.40;90.50;;;;;;1900380;74;21600;-79
2021/10/02 09:29:45;;;;;;;9.48;7.78;;;32.30;90.50;;;;;;1911656;74;21558;-79
2021/10/02 09:32:18;;;;;;;12.82;8.33;;;32.30;90.60;;;;;;1909509;74;21544;-78
2021/10/02 09:34:51;;;;;;;9.85;8.60;;;32.30;90.70;;;;;;1904335;74;21124;-78
2021/10/02 09:37:24;;;;;;;9.65;7.97;;;32.30;90.80;;;;;;1906150;74;21236;-79
2021/10/02 09:43:42;;;;;;;22.20;10.98;;;32.20;91.80;;;;;;1849200;76;21128;-79
2021/10/02 09:46:14;;;;;;;13.25;9.63;;;32.20;93.20;;;;;;1856258;76;21210;-79
2021/10/02 09:48:47;;;;;;;12.65;9.35;;;32.10;93.20;;;;;;1853462;77;21297;-81
2021/10/02 09:51:18;;;;;;;10.03;7.58;;;31.90;93.60;;;;;;1854657;76;21210;-79
2021/10/02 09:57:02;;;;;;;10.95;9.85;;;31.70;94.30;;;;;;1785179;79;21685;-78
2021/10/02 10:03:08;;;;;;;16.50;10.50;;;31.50;95.10;;;;;;1778229;79;21170;-79
2021/10/02 10:05:41;;;;;;;12.82;10.48;;;31.30;96.90;;;;;;1775721;79;21174;-78
2021/10/02 10:08:14;;;;;;;14.50;12.15;;;31.30;96.90;;;;;;1777503;79;21572;-77
2021/10/02 10:10:45;;;;;;;12.63;9.98;;;31.20;98.10;;;;;;1777505;79;21178;-79
2021/10/02 10:13:21;;;;;;;12.60;10.20;;;31.10;96.50;;;;;;1782181;80;21224;-79
2021/10/02 10:15:55;;;;;;;10.35;8.05;;;31.10;96.90;;;;;;1762944;80;21100;-79
2021/10/02 10:18:26;;;;;;;10.03;8.10;;;30.90;96.20;;;;;;1803317;79;21241;-78
2021/10/02 10:21:00;;;;;;;7.70;6.22;;;30.70;95.50;;;;;;1782133;79;21696;-79
2021/10/02 10:26:59;;;;;;;9.83;6.42;;;30.60;93.60;;;;;;1837379;77;21101;-78
2021/10/02 10:29:33;;;;;;;10.55;6.75;;;30.50;94.30;;;;;;1797301;78;21226;-78
2021/10/02 10:32:05;;;;;;;7.40;6.40;;;30.50;94.50;;;;;;1801049;79;21167;-78
2021/10/02 10:34:38;;;;;;;7.90;6.10;;;30.50;94.30;;;;;;1867667;75;21619;-78
2021/10/02 10:37:11;;;;;;;10.32;6.83;;;30.40;94.20;;;;;;1906340;75;21147;-78
2021/10/02 10:39:42;;;;;;;9.40;7.58;;;30.40;94.60;;;;;;1927080;74;21521;-78
2021/10/02 10:42:13;;;;;;;10.15;7.70;;;30.40;96.00;;;;;;1895319;76;21607;-78
2021/10/02 10:44:44;;;;;;;11.57;7.33;;;30.40;96.60;;;;;;1901226;75;21116;-78
2021/10/02 10:47:16;;;;;;;10.38;8.33;;;30.40;96.50;;;;;;1902461;75;21704;-79
2021/10/02 10:49:47;;;;;;;11.48;8.13;;;30.30;96.50;;;;;;1902223;75;21139;-78
2021/10/02 10:55:48;;;;;;;12.75;9.58;;;30.30;97.30;;;;;;1888443;75;21611;-78
2021/10/02 10:58:22;;;;;;;10.28;8.15;;;30.30;97.30;;;;;;1901719;75;21117;-78
2021/10/02 11:00:54;;;;;;;11.80;8.53;;;30.30;96.30;;;;;;1900082;75;21235;-79
2021/10/02 11:03:27;;;;;;;10.45;8.23;;;30.30;95.60;;;;;;1883324;75;21135;-78
2021/10/02 11:05:58;;;;;;;9.58;8.53;;;30.30;95.60;;;;;;1911619;74;21029;-80
2021/10/02 11:08:37;;;;;;;11.50;8.90;;;30.30;95.40;;;;;;1871994;75;21087;-79
2021/10/02 11:11:08;;;;;;;11.25;9.50;;;30.40;95.50;;;;;;1839217;77;21137;-78
2021/10/02 11:13:41;;;;;;;11.05;9.10;;;30.40;95.60;;;;;;1842452;77;21091;-79
2021/10/02 11:16:20;;;;;;;12.33;9.55;;;30.40;96.10;;;;;;1868542;76;21613;-78
2021/10/02 11:18:51;;;;;;;13.78;10.78;;;30.40;96.70;;;;;;1775583;81;21662;-79
2021/10/02 11:21:28;;;;;;;11.93;10.65;;;30.40;96.10;;;;;;1766789;81;21217;-78
2021/10/02 11:23:56;;;;;;;15.48;10.65;;;30.40;95.90;;;;;;1810442;79;21201;-79
2021/10/02 11:26:30;;;;;;;13.55;10.60;;;30.30;95.60;;;;;;1802917;79;21611;-78
2021/10/02 11:29:03;;;;;;;13.85;9.80;;;30.30;95.60;;;;;;1777635;80;21665;-79
2021/10/02 11:31:34;;;;;;;12.47;10.08;;;30.30;95.60;;;;;;1768542;81;21627;-78
2021/10/02 11:34:06;;;;;;;15.13;10.50;;;30.40;95.70;;;;;;1800236;77;21640;-78
2021/10/02 11:36:40;;;;;;;12.95;11.65;;;30.40;95.90;;;;;;1819363;78;21145;-78
2021/10/02 11:39:13;;;;;;;13.08;11.68;;;30.30;95.90;;;;;;1827314;77;21166;-79
2021/10/02 11:41:48;;;;;;;16.37;11.43;;;30.40;96.00;;;;;;1805723;78;22426;-77
2021/10/02 11:44:21;;;;;;;14.68;12.00;;;30.30;95.60;;;;;;1798208;79;21240;-79
2021/10/02 11:46:55;;;;;;;17.00;12.28;;;30.30;95.80;;;;;;1810200;78;21790;-78
2021/10/02 11:49:26;;;;;;;11.88;10.58;;;30.30;95.70;;;;;;1823263;78;21658;-78
2021/10/02 12:01:25;;;;;;;15.72;9.93;;;30.30;96.20;;;;;;1716571;83;21241;-77
2021/10/02 12:03:59;;;;;;;11.00;9.60;;;30.30;96.50;;;;;;1732779;80;21176;-79
2021/10/02 12:06:31;;;;;;;10.58;9.20;;;30.20;96.30;;;;;;1742733;80;21225;-80
2021/10/02 12:09:04;;;;;;;11.60;10.00;;;30.20;96.00;;;;;;1744831;81;21248;-78
2021/10/02 12:11:37;;;;;;;13.40;10.30;;;30.20;96.30;;;;;;1738402;81;21158;-78
2021/10/02 12:14:08;;;;;;;13.72;11.38;;;30.20;96.50;;;;;;1736347;82;21140;-80
2021/10/02 12:16:39;;;;;;;15.43;10.65;;;30.20;96.70;;;;;;1731294;81;21207;-77
2021/10/02 12:19:12;;;;;;;11.78;9.90;;;30.20;96.60;;;;;;1718372;81;21210;-78
2021/10/02 12:21:46;;;;;;;13.70;10.80;;;30.10;96.70;;;;;;1720664;81;21722;-88
2021/10/02 12:24:20;;;;;;;12.65;11.12;;;30.10;96.60;;;;;;1742435;82;21126;-88
2021/10/02 12:26:55;;;;;;;14.25;10.88;;;30.10;96.70;;;;;;1725465;81;21260;-88
2021/10/02 12:29:31;;;;;;;12.47;10.28;;;30.10;96.70;;;;;;1739350;80;21287;-89
2021/10/02 12:32:04;;;;;;;13.93;10.93;;;30.10;96.70;;;;;;1753511;77;21225;-88
2021/10/02 12:38:46;;;;;;;15.80;10.78;;;30.10;96.80;;;;;;1793451;78;21190;-89
2021/10/02 12:48:46;;;;;;;14.43;11.12;;;30.10;97.70;;;;;;1902844;75;21132;-87
2021/10/02 12:51:24;;;;;;;14.60;11.38;;;30.00;97.30;;;;;;1871917;75;21124;-88
2021/10/02 12:53:54;;;;;;;17.98;12.53;;;30.00;97.60;;;;;;1878895;75;21116;-87
2021/10/02 12:56:28;;;;;;;14.23;11.78;;;30.00;97.90;;;;;;1870744;77;21151;-88
2021/10/02 13:02:03;;;;;;;15.83;13.18;;;29.90;98.00;;;;;;1870919;77;21151;-88
2021/10/02 13:04:35;;;;;;;19.85;12.07;;;29.90;98.20;;;;;;1898722;75;21651;-88
2021/10/02 13:07:07;;;;;;;15.60;12.55;;;29.90;98.30;;;;;;1896365;75;21065;-88
2021/10/02 13:18:45;;;;;;;20.70;14.73;;;29.80;97.80;;;;;;1756892;81;21233;-89
2021/10/02 13:21:19;;;;;;;20.37;15.45;;;29.90;97.80;;;;;;1758510;81;21531;-88
2021/10/02 13:23:49;;;;;;;19.42;14.43;;;29.80;97.80;;;;;;1758893;80;21156;-89
2021/10/02 13:33:21;;;;;;;21.77;15.45;;;29.90;98.10;;;;;;1753918;81;21341;-89
2021/10/02 13:36:17;;;;;;;26.40;14.95;;;29.90;98.60;;;;;;1747353;81;21641;-89
2021/10/02 13:38:48;;;;;;;20.00;15.60;;;29.80;98.90;;;;;;1751886;82;21221;-89
2021/10/02 13:41:19;;;;;;;32.25;19.12;;;29.80;99.20;;;;;;1748911;80;21198;-89
2021/10/02 13:43:53;;;;;;;38.33;19.75;;;29.80;99.30;;;;;;1741241;80;21240;-89
2021/10/02 13:53:47;;;;;;;21.62;14.78;;;29.70;99.80;;;;;;1759042;80;21793;-89
2021/10/02 13:56:18;;;;;;;22.87;15.70;;;29.60;99.80;;;;;;1784998;79;21126;-88
2021/10/02 13:58:49;;;;;;;19.45;15.00;;;29.60;99.90;;;;;;1793152;79;21703;-89
2021/10/02 14:01:20;;;;;;;32.25;22.73;;;29.60;99.90;;;;;;1790463;79;21167;-89
2021/10/02 14:03:52;;;;;;;23.92;18.02;;;29.50;99.90;;;;;;1801832;79;21335;-87
2021/10/02 14:06:23;;;;;;;23.22;17.52;;;29.50;99.90;;;;;;1797455;78;21252;-89
2021/10/02 14:08:55;;;;;;;23.15;18.35;;;29.50;99.90;;;;;;1790101;80;21293;-88
2021/10/02 14:11:26;;;;;;;30.97;20.90;;;29.40;99.90;;;;;;1792197;78;21117;-89
2021/10/02 14:14:00;;;;;;;22.42;17.62;;;29.40;99.90;;;;;;1783866;79;21092;-90
2021/10/02 14:16:31;;;;;;;23.47;17.07;;;29.40;99.90;;;;;;1818392;79;21706;-88
2021/10/02 14:19:05;;;;;;;22.52;16.10;;;29.40;99.90;;;;;;1814610;79;21213;-90
2021/10/02 14:21:36;;;;;;;25.08;17.20;;;29.40;99.90;;;;;;1778959;79;21204;-90
2021/10/02 14:24:07;;;;;;;20.62;16.40;;;29.40;99.90;;;;;;1770258;79;21110;-89
2021/10/02 14:26:38;;;;;;;22.65;16.80;;;29.40;99.90;;;;;;1853485;74;21189;-88
2021/10/02 14:29:09;;;;;;;23.20;17.00;;;29.40;99.90;;;;;;1906803;74;21064;-88
2021/10/02 14:31:40;;;;;;;20.27;14.47;;;29.40;99.90;;;;;;1893340;75;21077;-89
2021/10/02 14:34:13;;;;;;;18.17;14.68;;;29.40;99.90;;;;;;1901720;75;21155;-88
2021/10/02 14:36:44;;;;;;;20.68;13.90;;;29.40;99.90;;;;;;1899734;74;21069;-89
2021/10/02 14:39:14;;;;;;;20.35;13.55;;;29.30;99.90;;;;;;1908979;74;21120;-89
2021/10/02 14:41:47;;;;;;;16.45;12.45;;;29.30;99.90;;;;;;1911767;73;21195;-86
2021/10/02 14:44:19;;;;;;;16.07;12.07;;;29.30;99.90;;;;;;1898776;75;21711;-89
2021/10/02 14:46:53;;;;;;;21.00;12.53;;;29.20;99.90;;;;;;1908256;75;21252;-88
2021/10/02 14:49:24;;;;;;;15.13;12.47;;;29.20;99.90;;;;;;1902376;74;21630;-89
2021/10/02 14:55:23;;;;;;;15.48;10.05;;;29.20;99.90;;;;;;1904535;74;21140;-90
2021/10/02 14:57:56;;;;;;;12.78;9.48;;;29.30;99.90;;;;;;1912589;75;21110;-89
2021/10/02 15:01:12;;;;;;;14.75;10.58;;;29.30;99.40;;;;;;1909011;75;21041;-87
2021/10/02 15:03:46;;;;;;;13.93;10.55;;;29.30;99.10;;;;;;1904149;75;21071;-87
2021/10/02 15:06:19;;;;;;;12.05;10.35;;;29.30;99.00;;;;;;1902921;73;21104;-87
2021/10/02 15:08:51;;;;;;;14.55;10.03;;;29.30;98.80;;;;;;1900799;75;21174;-88
2021/10/02 15:14:51;;;;;;;16.60;10.00;;;29.30;98.60;;;;;;1905674;75;21229;-89
2021/10/02 15:17:23;;;;;;;15.70;10.48;;;29.40;98.60;;;;;;1906057;75;21069;-87
2021/10/02 15:19:54;;;;;;;12.93;10.35;;;29.40;98.60;;;;;;1904214;75;21073;-87
2021/10/02 15:25:55;;;;;;;14.40;10.18;;;29.40;98.50;;;;;;1902521;75;21583;-88
2021/10/02 15:28:31;;;;;;;15.35;10.48;;;29.40;98.50;;;;;;1903054;75;21120;-88
2021/10/02 15:31:05;;;;;;;12.47;9.98;;;29.40;98.40;;;;;;1902657;75;21187;-89
2021/10/02 15:37:25;;;;;;;12.45;9.98;;;29.40;98.00;;;;;;1856943;75;21135;-88
2021/10/02 15:43:20;;;;;;;11.40;9.20;;;29.40;98.00;;;;;;1817778;77;21119;-86
2021/10/02 15:45:52;;;;;;;11.70;8.90;;;29.40;97.90;;;;;;1836883;78;21124;-89
2021/10/02 15:48:23;;;;;;;15.75;9.80;;;29.40;97.90;;;;;;1835238;77;21626;-89
2021/10/02 15:51:03;;;;;;;13.05;10.00;;;29.40;97.80;;;;;;1812851;78;21165;-89
2021/10/02 15:53:28;;;;;;;12.85;10.05;;;29.40;97.80;;;;;;1864060;75;21572;-88
2021/10/02 15:56:02;;;;;;;13.70;10.35;;;29.40;97.90;;;;;;1854745;75;21183;-88